Data for 05/03/2013

Time Sea-Level Adjusted Pressure Absolute Pressure Temperature Relative Humidity Dew Point   
(mb) (inHg) (mb) (inHg) (C) (F) (%) (C) (F)
00:05 1026 30.3 855 25.25 8.1 46.6 25 -10.7 12.7
00:10 1026 30.3 855 25.25 8.1 46.5 25 -10.7 12.8
00:15 1026 30.3 855 25.25 8 46.3 28 -9.5 14.9
00:20 1025 30.27 855 25.25 7.3 45.2 28 -9.9 14.2
00:25 1025 30.27 855 25.25 7.2 44.9 28 -10.2 13.6
00:30 1025 30.27 855 25.25 7.3 45.2 27 -10.5 13.2
00:35 1025 30.27 854 25.22 7.5 45.5 28 -9.8 14.3
00:40 1025 30.27 854 25.22 7 44.5 29 -9.8 14.3
00:45 1025 30.27 854 25.22 6.6 43.9 29 -10.2 13.6
00:50 1025 30.27 854 25.22 6.7 44.1 30 -9.7 14.5
00:55 1025 30.27 854 25.22 6.4 43.5 30 -9.9 14.2
01:00 1025 30.27 854 25.22 6.3 43.3 30 -10 14
01:05 1025 30.27 854 25.22 5.9 42.7 33 -9.3 15.3
01:10 1025 30.27 854 25.22 5.5 41.8 34 -9.4 15.1
01:15 1025 30.27 854 25.22 5 41 36 -8.9 16
01:20 1025 30.27 854 25.22 4.7 40.5 34 -9.9 14.2
01:25 1025 30.27 854 25.22 5.2 41.3 34 -9.4 15
01:30 1025 30.27 854 25.22 4.8 40.6 34 -9.8 14.4
01:35 1025 30.27 854 25.22 4.8 40.6 35 -9.4 15
01:40 1025 30.27 854 25.22 4.7 40.5 34 -9.8 14.3
01:45 1025 30.27 854 25.22 4.9 40.7 34 -9.9 14.2
01:50 1025 30.27 854 25.22 5 41.1 33 -10 14
01:55 1025 30.27 854 25.22 5.1 41.3 33 -9.8 14.3
02:00 1024 30.24 854 25.22 5.1 41.1 34 -9.7 14.6
02:05 1024 30.24 854 25.22 4.9 40.9 35 -9.5 15
02:10 1024 30.24 854 25.22 4.7 40.4 36 -9.2 15.4
02:15 1024 30.24 854 25.22 4.6 40.2 35 -9.6 14.7
02:20 1024 30.24 854 25.22 4.6 40.3 34 -9.9 14.1
02:25 1024 30.24 854 25.22 4.9 40.8 34 -9.6 14.7
02:30 1024 30.24 854 25.22 5.1 41.2 33 -9.9 14.1
02:35 1024 30.24 854 25.22 5.2 41.3 32 -10.1 13.8
02:40 1024 30.24 854 25.22 5.4 41.7 32 -9.9 14.2
02:45 1024 30.24 854 25.22 5.3 41.6 33 -9.8 14.4
02:50 1024 30.24 853 25.19 5.2 41.4 34 -9.4 15.1
02:55 1024 30.24 853 25.19 5 41 34 -9.4 15.1
03:00 1024 30.24 853 25.19 4.9 40.9 34 -9.7 14.6
03:05 1024 30.24 853 25.19 4.9 40.9 35 -9.4 15.1
03:10 1024 30.24 853 25.19 4.9 40.8 35 -9.5 14.9
03:15 1024 30.24 853 25.19 5 40.9 34 -9.6 14.6
03:20 1024 30.24 853 25.19 5.1 41.1 34 -9.6 14.6
03:25 1024 30.24 854 25.22 5.2 41.4 34 -9.6 14.8
03:30 1024 30.24 854 25.22 5.3 41.6 33 -9.6 14.7
03:35 1024 30.24 854 25.22 5.4 41.7 33 -9.8 14.4
03:40 1024 30.24 854 25.22 5.4 41.7 32 -9.9 14.1
03:45 1024 30.24 854 25.22 5.5 42 31 -10.3 13.4
03:50 1024 30.24 854 25.22 5.9 42.6 31 -10.1 13.8
03:55 1024 30.24 854 25.22 6 42.8 32 -9.4 15.1
04:00 1024 30.24 854 25.22 5.9 42.6 31 -9.9 14.1
04:05 1024 30.24 854 25.22 6 42.7 30 -10.1 13.8
04:10 1024 30.24 854 25.22 6 42.9 31 -9.9 14.2
04:15 1024 30.24 854 25.22 5.9 42.5 31 -9.9 14.2
04:20 1024 30.24 854 25.22 6 42.7 31 -9.9 14.2
04:25 1024 30.24 854 25.22 6.1 42.9 32 -9.5 15
04:30 1024 30.24 854 25.22 5.7 42.3 32 -9.9 14.2
04:35 1024 30.24 854 25.22 5.8 42.4 33 -9.2 15.5
04:40 1024 30.24 854 25.22 5.5 41.9 33 -9.5 14.9
04:45 1024 30.24 854 25.22 5.5 42 32 -9.8 14.3
04:50 1024 30.24 854 25.22 5.6 42.1 33 -9.4 15.1
04:55 1024 30.24 854 25.22 5.4 41.8 34 -9.4 15.1
05:00 1024 30.24 854 25.22 5.3 41.6 34 -9.2 15.5
05:05 1024 30.24 854 25.22 5.2 41.3 35 -9 15.7
05:10 1025 30.27 854 25.22 5.1 41.2 35 -9.1 15.7
05:15 1024 30.24 854 25.22 5.1 41.1 36 -8.9 16
05:20 1024 30.24 854 25.22 5.1 41.1 35 -9.3 15.3
05:25 1025 30.27 854 25.22 5.3 41.6 34 -9.5 15
05:30 1025 30.27 854 25.22 5.5 41.8 33 -9.7 14.6
05:35 1025 30.27 854 25.22 5.5 41.9 33 -9.4 15.1
05:40 1025 30.27 854 25.22 5.6 42 34 -9.3 15.3
05:45 1025 30.27 854 25.22 5.5 41.8 38 -7.8 17.9
05:50 1025 30.27 854 25.22 4.9 40.8 37 -8.7 16.3
05:55 1025 30.27 854 25.22 4.9 40.9 39 -8 17.6
06:00 1025 30.27 854 25.22 4.9 40.7 40 -7.5 18.4
06:05 1025 30.27 854 25.22 4.6 40.2 42 -7.2 19
06:10 1024 30.24 854 25.22 4.3 39.7 45 -6.7 20
06:15 1024 30.24 854 25.22 4.2 39.6 43 -7.2 19.1
06:20 1024 30.24 854 25.22 4.4 39.9 47 -5.9 21.3
06:25 1025 30.27 854 25.22 4.1 39.3 45 -6.8 19.8
06:30 1025 30.27 854 25.22 4.5 40.1 42 -7.3 18.8
06:35 1025 30.27 854 25.22 5 41 42 -6.7 19.9
06:40 1025 30.27 854 25.22 5.1 41.2 42 -6.8 19.8
06:45 1025 30.27 854 25.22 5.2 41.4 42 -6.7 20
06:50 1025 30.27 854 25.22 5.5 41.9 42 -6.3 20.6
06:55 1025 30.27 854 25.22 5.7 42.2 42 -6.3 20.7
07:00 1025 30.27 854 25.22 6 42.8 41 -6.1 21
07:05 1024 30.24 854 25.22 6.6 43.8 39 -6.4 20.5
07:10 1024 30.24 854 25.22 7.1 44.8 39 -6 21.1
07:15 1024 30.24 854 25.22 7.7 45.8 34 -7.2 19.1
07:20 1024 30.24 854 25.22 8.1 46.5 33 -7.1 19.2
07:25 1024 30.24 854 25.22 8.3 47 32 -7.5 18.5
07:30 1024 30.24 854 25.22 8.5 47.3 32 -7.4 18.7
07:35 1024 30.24 854 25.22 9 48.1 31 -7.3 18.9
07:40 1024 30.24 854 25.22 9.6 49.2 30 -7 19.4
07:45 1024 30.24 853 25.19 9.6 49.2 30 -7.1 19.2
07:50 1024 30.24 853 25.19 9.9 49.7 29 -7.2 19
07:55 1024 30.24 853 25.19 9.7 49.5 30 -6.9 19.6
08:00 1024 30.24 853 25.19 9.7 49.4 29 -7.4 18.7
08:05 1024 30.24 853 25.19 9.9 49.9 31 -6.3 20.6
08:10 1024 30.24 853 25.19 10 50 35 -4.8 23.4
08:15 1024 30.24 853 25.19 9.9 49.8 36 -4.6 23.7
08:20 1024 30.24 853 25.19 9.9 49.8 33 -5.6 21.9
08:25 1024 30.24 853 25.19 10.3 50.5 32 -5.6 21.9
08:30 1024 30.24 853 25.19 10.2 50.3 33 -5.5 22.1
08:35 1024 30.24 853 25.19 10.3 50.6 34 -4.9 23.3
08:40 1024 30.24 853 25.19 10.4 50.7 34 -4.7 23.6
08:45 1024 30.24 853 25.19 10.8 51.4 33 -4.7 23.5
08:50 1024 30.24 853 25.19 11.4 52.6 32 -4.6 23.8
08:55 1024 30.24 853 25.19 11.5 52.7 32 -4.7 23.6
09:00 1024 30.24 853 25.19 11.3 52.3 32 -4.6 23.7
09:05 1024 30.24 853 25.19 11.5 52.6 31 -5 23
09:10 1024 30.24 853 25.19 12.6 54.6 29 -4.9 23.3
09:15 1024 30.24 853 25.19 12.9 55.2 28 -5.3 22.5
09:20 1024 30.24 853 25.19 13.2 55.7 28 -5 22.9
09:25 1024 30.24 853 25.19 13.6 56.4 27 -5 22.9
09:30 1024 30.24 853 25.19 13.3 55.9 27 -5.1 22.7
09:35 1024 30.24 853 25.19 12.5 54.5 29 -5.2 22.7
09:40 1024 30.24 853 25.19 13.2 55.8 26 -6 21.1
09:45 1024 30.24 853 25.19 14 57.1 26 -5.2 22.6
09:50 1023 30.21 853 25.19 14.2 57.5 26 -5 22.9
09:55 1023 30.21 853 25.19 14.5 58.2 25 -5.1 22.8
10:00 1023 30.21 853 25.19 14.2 57.5 25 -5.6 22
10:05 1023 30.21 853 25.19 14.2 57.6 26 -5 22.9
10:10 1023 30.21 852 25.16 14.2 57.6 25 -5.5 22.1
10:15 1023 30.21 852 25.16 14 57.3 26 -5.3 22.5
10:20 1023 30.21 852 25.16 14.5 58 25 -5 23
10:25 1023 30.21 852 25.16 14.1 57.5 25 -5.4 22.3
10:30 1023 30.21 852 25.16 14 57.2 26 -5.2 22.6
10:35 1023 30.21 852 25.16 14.4 57.8 27 -4.6 23.8
10:40 1023 30.21 852 25.16 14.2 57.5 25 -5.4 22.2
10:45 1023 30.21 852 25.16 14.2 57.6 26 -5.1 22.8
10:50 1023 30.21 852 25.16 13 55.4 26 -6.1 21
10:55 1023 30.21 852 25.16 13.3 55.9 27 -5.3 22.5
11:00 1023 30.21 852 25.16 13 55.4 27 -5.7 21.7
11:05 1023 30.21 852 25.16 14 57.2 26 -5 22.9
11:10 1023 30.21 852 25.16 14.4 58 24 -6.1 21
11:15 1023 30.21 852 25.16 14.5 58.1 24 -5.6 21.9
11:20 1022 30.18 852 25.16 15 59 24 -5.5 22.1
11:25 1022 30.18 852 25.16 14.2 57.6 26 -4.9 23.1
11:30 1022 30.18 852 25.16 13.9 57 25 -5.7 21.7
11:35 1022 30.18 852 25.16 14.4 57.9 25 -5.3 22.4
11:40 1022 30.18 852 25.16 13.6 56.5 26 -5.6 21.9
11:45 1022 30.18 851 25.13 14.1 57.4 26 -5.1 22.8
11:50 1022 30.18 851 25.13 15 59 23 -5.7 21.8
11:55 1022 30.18 851 25.13 14.9 58.8 24 -5.4 22.3
12:00 1022 30.18 851 25.13 15 58.9 24 -5.3 22.5
12:05 1022 30.18 851 25.13 14.8 58.7 24 -5.5 22.1
12:10 1022 30.18 851 25.13 14.7 58.5 24 -5.5 22.1
12:15 1022 30.18 851 25.13 15.3 59.5 23 -5.9 21.4
12:20 1022 30.18 851 25.13 14.5 58.1 24 -6 21.2
12:25 1022 30.18 851 25.13 14.4 57.8 23 -6.5 20.3
12:30 1022 30.18 851 25.13 15.4 59.8 23 -5.5 22.1
12:35 1022 30.18 851 25.13 14.8 58.6 24 -5.7 21.8
12:40 1022 30.18 851 25.13 15.5 60 22 -5.9 21.3
12:45 1022 30.18 851 25.13 15 59 23 -6.2 20.9
12:50 1022 30.18 851 25.13 15.8 60.5 22 -5.9 21.4
12:55 1022 30.18 851 25.13 15.9 60.5 23 -5 23
13:00 1022 30.18 851 25.13 16.4 61.5 22 -5.4 22.3
13:05 1022 30.18 851 25.13 15.3 59.6 24 -5.3 22.5
13:10 1022 30.18 851 25.13 14.6 58.2 25 -5.2 22.6
13:15 1022 30.18 851 25.13 15.1 59.1 24 -5.5 22.1
13:20 1022 30.18 851 25.13 15.3 59.6 24 -5.1 22.9
13:25 1022 30.18 851 25.13 14.4 58 26 -4.5 23.8
13:30 1022 30.18 851 25.13 14.5 58 26 -4.9 23.1
13:35 1022 30.18 851 25.13 14.8 58.6 25 -5.1 22.8
13:40 1022 30.18 851 25.13 14 57.3 25 -5.7 21.8
13:45 1022 30.18 851 25.13 14.4 57.9 26 -4.6 23.7
13:50 1022 30.18 851 25.13 14.6 58.2 25 -5 23
13:55 1022 30.18 851 25.13 14.7 58.4 26 -4.8 23.4
14:00 1022 30.18 851 25.13 14.4 58 27 -4.5 24
14:05 1022 30.18 851 25.13 14.5 58.1 25 -5 23
14:10 1022 30.18 851 25.13 14.4 57.9 26 -5 23
14:15 1022 30.18 851 25.13 14.3 57.7 26 -4.9 23.3
14:20 1022 30.18 851 25.13 14.7 58.4 26 -4.3 24.2
14:25 1022 30.18 851 25.13 13.9 57.1 28 -4.2 24.4
14:30 1022 30.18 851 25.13 13.3 55.9 30 -3.7 25.4
14:35 1022 30.18 851 25.13 13.2 55.8 30 -4 24.9
14:40 1022 30.18 851 25.13 13.3 56 30 -4 24.9
14:45 1022 30.18 851 25.13 13.1 55.6 30 -4 24.8
14:50 1022 30.18 851 25.13 13.7 56.6 31 -3.1 26.5
14:55 1022 30.18 851 25.13 13.5 56.4 31 -3.3 26.1
15:00 1022 30.18 851 25.13 13.4 56.1 32 -3 26.6
15:05 1022 30.18 851 25.13 13.2 55.8 33 -2.8 26.9
15:10 1022 30.18 851 25.13 13.3 55.9 31 -3.2 26.2
15:15 1022 30.18 851 25.13 13.5 56.2 31 -3.2 26.2
15:20 1022 30.18 851 25.13 13.7 56.6 32 -2.7 27.1
15:25 1022 30.18 851 25.13 13.2 55.7 32 -3.1 26.4
15:30 1022 30.18 851 25.13 13.3 55.9 33 -2.7 27.1
15:35 1022 30.18 851 25.13 13.1 55.5 34 -2.6 27.4
15:40 1022 30.18 851 25.13 12.7 54.8 34 -2.8 27
15:45 1022 30.18 851 25.13 12.5 54.5 34 -2.9 26.8
15:50 1022 30.18 851 25.13 12.1 53.7 36 -2.6 27.3
15:55 1022 30.18 851 25.13 12.1 53.8 35 -2.7 27.2
16:00 1022 30.18 851 25.13 12.3 54.1 35 -2.5 27.4
16:05 1022 30.18 851 25.13 12 53.7 36 -2.3 27.8
16:10 1022 30.18 851 25.13 12 53.5 37 -2.1 28.2
16:15 1022 30.18 851 25.13 11.8 53.2 38 -1.9 28.5
16:20 1022 30.18 851 25.13 11.9 53.4 38 -2 28.4
16:25 1022 30.18 851 25.13 11.7 53 39 -1.7 28.9
16:30 1022 30.18 852 25.16 11.6 52.8 40 -1.7 29
16:35 1022 30.18 852 25.16 11.8 53.2 39 -1.8 28.7
16:40 1022 30.18 852 25.16 11.7 53 40 -1.4 29.6
16:45 1022 30.18 852 25.16 11.4 52.5 40 -1.6 29.2
16:50 1022 30.18 852 25.16 11.4 52.5 40 -1.8 28.8
16:55 1022 30.18 852 25.16 11.3 52.3 42 -1.2 29.8
17:00 1023 30.21 852 25.16 11.1 52 42 -1.3 29.6
17:05 1023 30.21 852 25.16 10.9 51.7 43 -1.2 29.8
17:10 1023 30.21 852 25.16 10.9 51.7 42 -1.4 29.6
17:15 1023 30.21 852 25.16 10.9 51.5 42 -1.4 29.4
17:20 1023 30.21 852 25.16 10.8 51.4 42 -1.6 29.2
17:25 1023 30.21 852 25.16 10.8 51.4 42 -1.5 29.3
17:30 1023 30.21 852 25.16 10.8 51.4 43 -1.2 29.8
17:35 1023 30.21 852 25.16 10.1 50.2 47 -0.8 30.6
17:40 1023 30.21 852 25.16 9.9 49.8 48 -0.5 31.1
17:45 1023 30.21 852 25.16 10.1 50.2 47 -0.6 30.9
17:50 1023 30.21 852 25.16 10.1 50.1 47 -0.7 30.7
17:55 1023 30.21 852 25.16 9.9 49.9 49 -0.1 31.7
18:00 1023 30.21 852 25.16 9.6 49.3 59 2 35.6
18:05 1023 30.21 852 25.16 9 48.3 61 1.9 35.5
18:10 1023 30.21 852 25.16 9.1 48.3 58 1.2 34.1
18:15 1023 30.21 852 25.16 9.3 48.7 60 1.8 35.3
18:20 1023 30.21 852 25.16 9.2 48.5 57 1.1 33.9
18:25 1023 30.21 852 25.16 8.6 47.4 64 2.2 35.9
18:30 1023 30.21 852 25.16 8.3 46.9 63 1.6 34.9
18:35 1023 30.21 852 25.16 8.2 46.7 63 1.7 35
18:40 1023 30.21 852 25.16 8.2 46.8 61 1.1 34
18:45 1023 30.21 852 25.16 8.4 47 60 1.1 34
18:50 1023 30.21 852 25.16 8.5 47.3 63 1.8 35.2
18:55 1023 30.21 852 25.16 8.5 47.3 64 2.1 35.7
19:00 1023 30.21 852 25.16 8.3 46.9 65 2.1 35.7
19:05 1023 30.21 852 25.16 7.7 45.9 69 2.4 36.2
19:10 1023 30.21 852 25.16 7.5 45.6 70 2.5 36.4
19:15 1023 30.21 853 25.19 7.7 45.8 72 2.9 37.2
19:20 1023 30.21 853 25.19 7.5 45.5 73 3 37.4
19:25 1023 30.21 853 25.19 7.4 45.3 73 2.8 37
19:30 1023 30.21 853 25.19 7.2 45 74 2.9 37.3
19:35 1023 30.21 853 25.19 7.2 44.9 74 2.8 37
19:40 1023 30.21 853 25.19 7 44.6 77 3.2 37.8
19:45 1023 30.21 853 25.19 7 44.5 80 3.8 38.8
19:50 1023 30.21 853 25.19 6.7 44 84 4.2 39.6
19:55 1023 30.21 853 25.19 6.3 43.4 85 4 39.2
20:00 1024 30.24 853 25.19 6 42.8 85 3.6 38.5
20:05 1024 30.24 853 25.19 5.9 42.6 86 3.7 38.7
20:10 1024 30.24 853 25.19 5.9 42.7 86 3.8 38.8
20:15 1024 30.24 853 25.19 5.9 42.6 87 3.9 39
20:20 1024 30.24 853 25.19 5.9 42.5 88 4 39.2
20:25 1024 30.24 853 25.19 5.8 42.4 88 3.9 39
20:30 1024 30.24 853 25.19 5.7 42.3 89 4 39.2
20:35 1024 30.24 853 25.19 5.8 42.4 88 4 39.2
20:40 1024 30.24 853 25.19 5.8 42.4 88 4 39.2
20:45 1024 30.24 853 25.19 5.7 42.3 87 3.8 38.8
20:50 1024 30.24 853 25.19 5.7 42.3 86 3.6 38.4
20:55 1024 30.24 853 25.19 5.7 42.3 85 3.5 38.3
21:00 1024 30.24 853 25.19 5.8 42.4 84 3.3 38
21:05 1024 30.24 853 25.19 5.9 42.5 84 3.4 38.1
21:10 1024 30.24 853 25.19 6 42.8 82 3.2 37.8
21:15 1024 30.24 853 25.19 6.1 43 82 3.2 37.8
21:20 1024 30.24 853 25.19 6.2 43.2 80 2.9 37.3
21:25 1024 30.24 853 25.19 6.1 42.9 82 3.2 37.7
21:30 1024 30.24 853 25.19 6 42.8 78 2.5 36.4
21:35 1024 30.24 853 25.19 6.1 43 76 2.2 36
21:40 1024 30.24 853 25.19 6 42.8 77 2.2 36
21:45 1024 30.24 853 25.19 5.9 42.6 79 2.6 36.7
21:50 1024 30.24 853 25.19 6 42.7 77 2.2 36
21:55 1024 30.24 853 25.19 5.9 42.6 79 2.5 36.5
22:00 1024 30.24 853 25.19 5.7 42.3 79 2.4 36.4
22:05 1024 30.24 853 25.19 5.5 42 83 2.8 37.1
22:10 1024 30.24 853 25.19 5.3 41.6 84 2.8 37.1
22:15 1024 30.24 853 25.19 5.2 41.4 83 2.5 36.5
22:20 1024 30.24 853 25.19 5.3 41.6 82 2.6 36.6
22:25 1024 30.24 853 25.19 5.3 41.6 83 2.7 36.9
22:30 1024 30.24 853 25.19 5.2 41.3 85 2.8 37.1
22:35 1024 30.24 853 25.19 5.1 41.2 85 2.7 36.9
22:40 1024 30.24 853 25.19 5 41 85 2.7 36.9
22:45 1024 30.24 853 25.19 4.9 40.9 86 2.7 36.9
22:50 1024 30.24 853 25.19 4.9 40.8 86 2.7 36.9
22:55 1024 30.24 853 25.19 4.9 40.8 86 2.7 36.9
23:00 1024 30.24 853 25.19 4.7 40.5 87 2.7 36.8
23:05 1024 30.24 853 25.19 4.7 40.4 87 2.6 36.7
23:10 1024 30.24 853 25.19 4.6 40.4 87 2.6 36.7
23:15 1024 30.24 853 25.19 4.6 40.3 87 2.6 36.7
23:20 1024 30.24 853 25.19 4.6 40.3 87 2.6 36.7
23:25 1024 30.24 853 25.19 4.6 40.2 87 2.6 36.7
23:30 1024 30.24 853 25.19 4.6 40.2 88 2.8 37
23:35 1024 30.24 853 25.19 4.6 40.3 88 2.8 37
23:40 1024 30.24 853 25.19 4.5 40 89 2.8 37
23:45 1024 30.24 853 25.19 4.4 39.9 90 2.8 37.1
23:50 1024 30.24 853 25.19 4.3 39.8 90 2.9 37.2
23:55 1024 30.24 853 25.19 4.3 39.8 91 3 37.3
24:00 1024 30.24 853 25.19 4.3 39.7 91 2.9 37.2